Terminal Aerodrome Forecast
Issued by NWS

Current Version | Previous Version | Text Only | Print | Product List | Glossary On
Versions: 1 2 3 4 5 6 7 8 9 10 11 12 13 14 15 16 17 18 19 20 21 22 23 24 25 26
000
FTUS41 KPHI 252300
TAFMIV
TAF
KMIV 252320Z 2600/2624 36003KT P6SM BKN200
     FM260500 03005KT P6SM OVC100
     FM260800 03010KT 6SM -RA OVC030
     FM261200 03013G22KT 2SM RA BR OVC005
     FM262100 36013G23KT 3SM -RASN BR OVC025
     FM262300 32011G21KT P6SM BKN080=

USA.gov is the U.S. government's official web portal to all federal, state and local government web resources and services.